sensor_id;sensor_type;location;lat;lon;timestamp;P1;durP1;ratioP1;P2;durP2;ratioP2
74259;SDS011;62630;55.874;37.516;2022-09-12T00:01:51;6.70;;;3.88;;
74259;SDS011;62630;55.874;37.516;2022-09-12T00:04:17;7.63;;;3.78;;
74259;SDS011;62630;55.874;37.516;2022-09-12T00:06:42;6.45;;;3.85;;
74259;SDS011;62630;55.874;37.516;2022-09-12T00:09:09;5.93;;;4.13;;
74259;SDS011;62630;55.874;37.516;2022-09-12T00:11:37;7.82;;;3.63;;
74259;SDS011;62630;55.874;37.516;2022-09-12T00:16:31;7.55;;;3.80;;
74259;SDS011;62630;55.874;37.516;2022-09-12T00:18:58;10.60;;;4.30;;
74259;SDS011;62630;55.874;37.516;2022-09-12T00:21:23;7.82;;;4.32;;
74259;SDS011;62630;55.874;37.516;2022-09-12T00:23:49;7.88;;;4.47;;
74259;SDS011;62630;55.874;37.516;2022-09-12T00:26:16;10.07;;;4.05;;
74259;SDS011;62630;55.874;37.516;2022-09-12T00:28:42;8.43;;;4.45;;
74259;SDS011;62630;55.874;37.516;2022-09-12T00:31:10;7.40;;;4.20;;
74259;SDS011;62630;55.874;37.516;2022-09-12T00:33:37;7.28;;;3.85;;
74259;SDS011;62630;55.874;37.516;2022-09-12T00:36:04;7.55;;;4.45;;
74259;SDS011;62630;55.874;37.516;2022-09-12T00:38:31;12.50;;;5.05;;
74259;SDS011;62630;55.874;37.516;2022-09-12T00:40:56;12.93;;;5.07;;
74259;SDS011;62630;55.874;37.516;2022-09-12T00:46:34;7.55;;;4.30;;
74259;SDS011;62630;55.874;37.516;2022-09-12T00:49:17;6.55;;;4.40;;
74259;SDS011;62630;55.874;37.516;2022-09-12T00:52:02;8.90;;;4.30;;
74259;SDS011;62630;55.874;37.516;2022-09-12T00:54:42;6.88;;;3.78;;
74259;SDS011;62630;55.874;37.516;2022-09-12T00:57:12;7.15;;;3.63;;
74259;SDS011;62630;55.874;37.516;2022-09-12T00:59:41;10.02;;;3.63;;
74259;SDS011;62630;55.874;37.516;2022-09-12T01:02:16;7.28;;;3.35;;
74259;SDS011;62630;55.874;37.516;2022-09-12T01:04:42;6.20;;;3.45;;
74259;SDS011;62630;55.874;37.516;2022-09-12T01:07:08;12.02;;;3.95;;
74259;SDS011;62630;55.874;37.516;2022-09-12T01:09:34;8.40;;;3.70;;
74259;SDS011;62630;55.874;37.516;2022-09-12T01:12:01;6.22;;;3.97;;
74259;SDS011;62630;55.874;37.516;2022-09-12T01:14:28;9.73;;;4.55;;
74259;SDS011;62630;55.874;37.516;2022-09-12T01:16:55;8.02;;;5.28;;
74259;SDS011;62630;55.874;37.516;2022-09-12T01:19:30;7.28;;;5.32;;
74259;SDS011;62630;55.874;37.516;2022-09-12T01:24:59;9.63;;;6.32;;
74259;SDS011;62630;55.874;37.516;2022-09-12T01:38:28;10.15;;;6.05;;
74259;SDS011;62630;55.874;37.516;2022-09-12T01:40:58;9.43;;;6.45;;
74259;SDS011;62630;55.874;37.516;2022-09-12T01:48:38;7.38;;;5.15;;
74259;SDS011;62630;55.874;37.516;2022-09-12T01:54:11;7.22;;;4.43;;
74259;SDS011;62630;55.874;37.516;2022-09-12T01:57:03;6.75;;;5.00;;
74259;SDS011;62630;55.874;37.516;2022-09-12T01:59:37;6.40;;;4.82;;
74259;SDS011;62630;55.874;37.516;2022-09-12T02:02:11;10.30;;;5.32;;
74259;SDS011;62630;55.874;37.516;2022-09-12T02:04:46;8.50;;;5.40;;
74259;SDS011;62630;55.874;37.516;2022-09-12T02:07:50;8.50;;;5.05;;
74259;SDS011;62630;55.874;37.516;2022-09-12T02:10:18;12.35;;;5.13;;
74259;SDS011;62630;55.874;37.516;2022-09-12T02:12:57;10.68;;;6.47;;
74259;SDS011;62630;55.874;37.516;2022-09-12T02:15:34;13.52;;;7.63;;
74259;SDS011;62630;55.874;37.516;2022-09-12T02:18:04;11.50;;;6.70;;
74259;SDS011;62630;55.874;37.516;2022-09-12T02:20:34;10.63;;;5.22;;
74259;SDS011;62630;55.874;37.516;2022-09-12T02:23:02;7.47;;;5.22;;
74259;SDS011;62630;55.874;37.516;2022-09-12T02:25:33;7.28;;;4.35;;
74259;SDS011;62630;55.874;37.516;2022-09-12T02:28:17;8.45;;;4.00;;
74259;SDS011;62630;55.874;37.516;2022-09-12T02:30:55;7.93;;;4.00;;
74259;SDS011;62630;55.874;37.516;2022-09-12T02:36:26;10.50;;;4.28;;
74259;SDS011;62630;55.874;37.516;2022-09-12T02:38:58;9.50;;;4.80;;
74259;SDS011;62630;55.874;37.516;2022-09-12T02:41:24;7.18;;;4.90;;
74259;SDS011;62630;55.874;37.516;2022-09-12T02:43:50;8.73;;;4.88;;
74259;SDS011;62630;55.874;37.516;2022-09-12T02:46:20;9.07;;;4.78;;
74259;SDS011;62630;55.874;37.516;2022-09-12T02:48:50;10.18;;;5.07;;
74259;SDS011;62630;55.874;37.516;2022-09-12T02:51:16;13.00;;;5.40;;
74259;SDS011;62630;55.874;37.516;2022-09-12T02:53:42;10.40;;;4.93;;
74259;SDS011;62630;55.874;37.516;2022-09-12T02:56:09;6.65;;;4.68;;
74259;SDS011;62630;55.874;37.516;2022-09-12T02:58:41;13.18;;;4.97;;
74259;SDS011;62630;55.874;37.516;2022-09-12T03:06:58;7.32;;;5.20;;
74259;SDS011;62630;55.874;37.516;2022-09-12T03:16:00;7.97;;;4.80;;
74259;SDS011;62630;55.874;37.516;2022-09-12T03:26:24;10.82;;;5.80;;
74259;SDS011;62630;55.874;37.516;2022-09-12T03:28:55;9.55;;;5.72;;
74259;SDS011;62630;55.874;37.516;2022-09-12T03:31:23;13.02;;;6.20;;
74259;SDS011;62630;55.874;37.516;2022-09-12T03:33:50;12.38;;;6.32;;
74259;SDS011;62630;55.874;37.516;2022-09-12T03:36:18;12.15;;;6.80;;
74259;SDS011;62630;55.874;37.516;2022-09-12T03:38:48;10.50;;;6.10;;
74259;SDS011;62630;55.874;37.516;2022-09-12T03:41:14;13.63;;;6.20;;
74259;SDS011;62630;55.874;37.516;2022-09-12T03:43:40;12.20;;;6.43;;
74259;SDS011;62630;55.874;37.516;2022-09-12T03:46:05;10.52;;;6.57;;
74259;SDS011;62630;55.874;37.516;2022-09-12T03:48:31;14.02;;;7.10;;
74259;SDS011;62630;55.874;37.516;2022-09-12T03:51:00;14.20;;;7.10;;
74259;SDS011;62630;55.874;37.516;2022-09-12T03:53:26;12.45;;;6.60;;
74259;SDS011;62630;55.874;37.516;2022-09-12T03:55:52;12.43;;;6.53;;
74259;SDS011;62630;55.874;37.516;2022-09-12T03:58:18;13.15;;;6.70;;
74259;SDS011;62630;55.874;37.516;2022-09-12T04:00:44;13.15;;;5.95;;
74259;SDS011;62630;55.874;37.516;2022-09-12T04:03:09;12.55;;;7.70;;
74259;SDS011;62630;55.874;37.516;2022-09-12T04:05:35;11.82;;;6.60;;
74259;SDS011;62630;55.874;37.516;2022-09-12T04:08:00;14.02;;;7.32;;
74259;SDS011;62630;55.874;37.516;2022-09-12T04:10:26;13.13;;;7.53;;
74259;SDS011;62630;55.874;37.516;2022-09-12T04:12:52;13.50;;;8.02;;
74259;SDS011;62630;55.874;37.516;2022-09-12T04:15:17;13.38;;;7.75;;
74259;SDS011;62630;55.874;37.516;2022-09-12T04:17:43;18.70;;;8.20;;
74259;SDS011;62630;55.874;37.516;2022-09-12T04:20:08;14.27;;;8.32;;
74259;SDS011;62630;55.874;37.516;2022-09-12T04:22:35;16.75;;;8.43;;
74259;SDS011;62630;55.874;37.516;2022-09-12T04:25:02;16.27;;;8.20;;
74259;SDS011;62630;55.874;37.516;2022-09-12T04:27:29;16.63;;;7.88;;
74259;SDS011;62630;55.874;37.516;2022-09-12T04:29:55;14.45;;;7.60;;
74259;SDS011;62630;55.874;37.516;2022-09-12T04:32:22;13.43;;;7.75;;
74259;SDS011;62630;55.874;37.516;2022-09-12T04:34:48;11.65;;;8.77;;
74259;SDS011;62630;55.874;37.516;2022-09-12T04:37:14;17.65;;;8.38;;
74259;SDS011;62630;55.874;37.516;2022-09-12T04:39:40;13.15;;;8.63;;
74259;SDS011;62630;55.874;37.516;2022-09-12T04:42:06;13.10;;;7.45;;
74259;SDS011;62630;55.874;37.516;2022-09-12T04:44:33;14.57;;;7.78;;
74259;SDS011;62630;55.874;37.516;2022-09-12T04:49:27;14.07;;;7.43;;
74259;SDS011;62630;55.874;37.516;2022-09-12T04:51:54;15.18;;;7.78;;
74259;SDS011;62630;55.874;37.516;2022-09-12T04:54:20;12.68;;;7.93;;
74259;SDS011;62630;55.874;37.516;2022-09-12T04:56:48;12.40;;;7.82;;
74259;SDS011;62630;55.874;37.516;2022-09-12T05:01:41;11.18;;;7.35;;
74259;SDS011;62630;55.874;37.516;2022-09-12T05:04:08;16.45;;;6.78;;
74259;SDS011;62630;55.874;37.516;2022-09-12T05:06:37;18.05;;;8.35;;
74259;SDS011;62630;55.874;37.516;2022-09-12T05:09:04;10.60;;;6.68;;
74259;SDS011;62630;55.874;37.516;2022-09-12T05:11:32;13.20;;;6.40;;
74259;SDS011;62630;55.874;37.516;2022-09-12T05:14:00;16.58;;;6.95;;
74259;SDS011;62630;55.874;37.516;2022-09-12T05:16:26;10.85;;;7.28;;
74259;SDS011;62630;55.874;37.516;2022-09-12T05:18:52;12.93;;;7.60;;
74259;SDS011;62630;55.874;37.516;2022-09-12T05:21:20;15.40;;;7.25;;
74259;SDS011;62630;55.874;37.516;2022-09-12T05:23:49;13.10;;;7.30;;
74259;SDS011;62630;55.874;37.516;2022-09-12T05:26:16;11.18;;;6.78;;
74259;SDS011;62630;55.874;37.516;2022-09-12T05:28:43;12.38;;;7.10;;
74259;SDS011;62630;55.874;37.516;2022-09-12T05:31:12;11.73;;;6.43;;
74259;SDS011;62630;55.874;37.516;2022-09-12T05:33:40;11.32;;;6.72;;
74259;SDS011;62630;55.874;37.516;2022-09-12T05:36:09;12.85;;;6.70;;
74259;SDS011;62630;55.874;37.516;2022-09-12T05:38:37;12.80;;;6.97;;
74259;SDS011;62630;55.874;37.516;2022-09-12T05:43:34;10.65;;;6.28;;
74259;SDS011;62630;55.874;37.516;2022-09-12T05:46:10;11.90;;;6.10;;
74259;SDS011;62630;55.874;37.516;2022-09-12T05:48:38;10.02;;;6.10;;
74259;SDS011;62630;55.874;37.516;2022-09-12T05:51:14;9.88;;;5.80;;
74259;SDS011;62630;55.874;37.516;2022-09-12T05:53:45;9.20;;;6.40;;
74259;SDS011;62630;55.874;37.516;2022-09-12T05:56:13;10.30;;;6.20;;
74259;SDS011;62630;55.874;37.516;2022-09-12T05:58:41;7.80;;;5.55;;
74259;SDS011;62630;55.874;37.516;2022-09-12T06:01:10;10.60;;;6.47;;
74259;SDS011;62630;55.874;37.516;2022-09-12T06:03:43;15.00;;;7.00;;
74259;SDS011;62630;55.874;37.516;2022-09-12T06:06:14;11.00;;;6.05;;
74259;SDS011;62630;55.874;37.516;2022-09-12T06:08:43;9.82;;;6.20;;
74259;SDS011;62630;55.874;37.516;2022-09-12T06:11:11;10.80;;;6.05;;
74259;SDS011;62630;55.874;37.516;2022-09-12T06:13:39;9.52;;;5.80;;
74259;SDS011;62630;55.874;37.516;2022-09-12T06:18:36;8.60;;;5.47;;
74259;SDS011;62630;55.874;37.516;2022-09-12T06:21:06;10.27;;;5.72;;
74259;SDS011;62630;55.874;37.516;2022-09-12T06:23:33;10.85;;;6.40;;
74259;SDS011;62630;55.874;37.516;2022-09-12T06:25:59;11.35;;;6.38;;
74259;SDS011;62630;55.874;37.516;2022-09-12T06:28:25;10.90;;;6.10;;
74259;SDS011;62630;55.874;37.516;2022-09-12T06:30:51;13.40;;;5.80;;
74259;SDS011;62630;55.874;37.516;2022-09-12T06:33:16;9.13;;;5.68;;
74259;SDS011;62630;55.874;37.516;2022-09-12T06:35:42;9.50;;;6.90;;
74259;SDS011;62630;55.874;37.516;2022-09-12T06:38:08;6.57;;;4.80;;
74259;SDS011;62630;55.874;37.516;2022-09-12T06:40:34;10.02;;;5.32;;
74259;SDS011;62630;55.874;37.516;2022-09-12T06:43:04;9.50;;;5.90;;
74259;SDS011;62630;55.874;37.516;2022-09-12T06:45:30;7.40;;;5.15;;
74259;SDS011;62630;55.874;37.516;2022-09-12T06:47:56;11.35;;;5.90;;
74259;SDS011;62630;55.874;37.516;2022-09-12T06:50:22;9.10;;;5.53;;
74259;SDS011;62630;55.874;37.516;2022-09-12T06:52:48;6.63;;;5.45;;
74259;SDS011;62630;55.874;37.516;2022-09-12T06:55:15;7.97;;;6.15;;
74259;SDS011;62630;55.874;37.516;2022-09-12T06:57:41;7.28;;;5.57;;
74259;SDS011;62630;55.874;37.516;2022-09-12T07:00:06;8.98;;;4.65;;
74259;SDS011;62630;55.874;37.516;2022-09-12T07:02:33;6.18;;;3.92;;
74259;SDS011;62630;55.874;37.516;2022-09-12T07:04:58;8.20;;;4.90;;
74259;SDS011;62630;55.874;37.516;2022-09-12T07:07:24;7.43;;;5.10;;
74259;SDS011;62630;55.874;37.516;2022-09-12T07:09:50;5.57;;;4.80;;
74259;SDS011;62630;55.874;37.516;2022-09-12T07:12:15;6.43;;;4.63;;
74259;SDS011;62630;55.874;37.516;2022-09-12T07:14:41;9.07;;;5.28;;
74259;SDS011;62630;55.874;37.516;2022-09-12T07:17:06;7.78;;;4.78;;
74259;SDS011;62630;55.874;37.516;2022-09-12T07:19:32;8.80;;;4.95;;
74259;SDS011;62630;55.874;37.516;2022-09-12T07:21:59;7.03;;;4.75;;
74259;SDS011;62630;55.874;37.516;2022-09-12T07:24:24;8.77;;;4.97;;
74259;SDS011;62630;55.874;37.516;2022-09-12T07:26:50;8.48;;;4.50;;
74259;SDS011;62630;55.874;37.516;2022-09-12T07:29:15;10.57;;;5.20;;
74259;SDS011;62630;55.874;37.516;2022-09-12T07:31:41;7.65;;;4.97;;
74259;SDS011;62630;55.874;37.516;2022-09-12T07:34:07;7.32;;;5.13;;
74259;SDS011;62630;55.874;37.516;2022-09-12T07:36:32;11.32;;;4.85;;
74259;SDS011;62630;55.874;37.516;2022-09-12T07:38:58;6.97;;;4.90;;
74259;SDS011;62630;55.874;37.516;2022-09-12T07:41:24;8.38;;;5.05;;
74259;SDS011;62630;55.874;37.516;2022-09-12T07:43:58;7.60;;;5.07;;
74259;SDS011;62630;55.874;37.516;2022-09-12T07:48:51;10.30;;;5.18;;
74259;SDS011;62630;55.874;37.516;2022-09-12T07:51:19;6.53;;;4.70;;
74259;SDS011;62630;55.874;37.516;2022-09-12T07:53:45;6.80;;;4.55;;
74259;SDS011;62630;55.874;37.516;2022-09-12T07:58:39;5.85;;;3.83;;
74259;SDS011;62630;55.874;37.516;2022-09-12T08:01:18;9.02;;;4.50;;
74259;SDS011;62630;55.874;37.516;2022-09-12T08:03:47;6.60;;;4.32;;
74259;SDS011;62630;55.874;37.516;2022-09-12T08:08:50;10.02;;;5.13;;
74259;SDS011;62630;55.874;37.516;2022-09-12T08:11:19;6.95;;;4.50;;
74259;SDS011;62630;55.874;37.516;2022-09-12T08:13:46;10.95;;;4.13;;
74259;SDS011;62630;55.874;37.516;2022-09-12T08:16:13;8.90;;;3.95;;
74259;SDS011;62630;55.874;37.516;2022-09-12T08:18:40;6.53;;;4.20;;
74259;SDS011;62630;55.874;37.516;2022-09-12T08:21:07;6.55;;;4.13;;
74259;SDS011;62630;55.874;37.516;2022-09-12T08:23:36;6.85;;;4.20;;
74259;SDS011;62630;55.874;37.516;2022-09-12T08:26:02;6.70;;;4.30;;
74259;SDS011;62630;55.874;37.516;2022-09-12T08:31:02;10.02;;;4.97;;
74259;SDS011;62630;55.874;37.516;2022-09-12T08:33:28;7.13;;;5.15;;
74259;SDS011;62630;55.874;37.516;2022-09-12T08:36:04;7.68;;;5.07;;
74259;SDS011;62630;55.874;37.516;2022-09-12T08:38:32;9.77;;;5.53;;
74259;SDS011;62630;55.874;37.516;2022-09-12T08:41:03;8.02;;;5.05;;
74259;SDS011;62630;55.874;37.516;2022-09-12T08:44:07;8.63;;;6.00;;
74259;SDS011;62630;55.874;37.516;2022-09-12T08:55:03;12.45;;;6.85;;
74259;SDS011;62630;55.874;37.516;2022-09-12T08:57:31;13.85;;;8.15;;
74259;SDS011;62630;55.874;37.516;2022-09-12T08:59:57;12.65;;;8.25;;
74259;SDS011;62630;55.874;37.516;2022-09-12T09:05:18;21.15;;;8.98;;
74259;SDS011;62630;55.874;37.516;2022-09-12T09:19:14;16.00;;;9.65;;
74259;SDS011;62630;55.874;37.516;2022-09-12T09:21:49;16.95;;;10.13;;
74259;SDS011;62630;55.874;37.516;2022-09-12T09:24:20;17.65;;;10.27;;
74259;SDS011;62630;55.874;37.516;2022-09-12T09:26:56;23.33;;;10.27;;
74259;SDS011;62630;55.874;37.516;2022-09-12T09:29:32;20.50;;;10.25;;
74259;SDS011;62630;55.874;37.516;2022-09-12T09:32:09;17.05;;;10.02;;
74259;SDS011;62630;55.874;37.516;2022-09-12T09:34:41;21.73;;;10.95;;
74259;SDS011;62630;55.874;37.516;2022-09-12T09:37:15;19.55;;;10.88;;
74259;SDS011;62630;55.874;37.516;2022-09-12T09:42:37;24.05;;;9.73;;
74259;SDS011;62630;55.874;37.516;2022-09-12T09:45:16;20.50;;;10.07;;
74259;SDS011;62630;55.874;37.516;2022-09-12T09:47:49;18.75;;;10.82;;
74259;SDS011;62630;55.874;37.516;2022-09-12T09:50:21;17.02;;;9.18;;
74259;SDS011;62630;55.874;37.516;2022-09-12T09:52:47;21.77;;;9.45;;
74259;SDS011;62630;55.874;37.516;2022-09-12T09:55:17;17.80;;;9.30;;
74259;SDS011;62630;55.874;37.516;2022-09-12T09:57:47;18.02;;;9.82;;
74259;SDS011;62630;55.874;37.516;2022-09-12T10:03:06;14.85;;;8.52;;
74259;SDS011;62630;55.874;37.516;2022-09-12T10:05:50;18.38;;;9.48;;
74259;SDS011;62630;55.874;37.516;2022-09-12T10:08:21;15.60;;;8.35;;
74259;SDS011;62630;55.874;37.516;2022-09-12T10:10:53;15.23;;;8.52;;
74259;SDS011;62630;55.874;37.516;2022-09-12T10:13:32;11.95;;;9.13;;
74259;SDS011;62630;55.874;37.516;2022-09-12T10:16:01;15.15;;;8.60;;
74259;SDS011;62630;55.874;37.516;2022-09-12T10:18:40;14.68;;;8.30;;
74259;SDS011;62630;55.874;37.516;2022-09-12T10:21:13;14.52;;;7.55;;
74259;SDS011;62630;55.874;37.516;2022-09-12T10:23:43;16.33;;;8.35;;
74259;SDS011;62630;55.874;37.516;2022-09-12T10:26:11;17.90;;;7.82;;
74259;SDS011;62630;55.874;37.516;2022-09-12T10:28:46;13.60;;;8.23;;
74259;SDS011;62630;55.874;37.516;2022-09-12T10:31:22;12.63;;;7.50;;
74259;SDS011;62630;55.874;37.516;2022-09-12T10:33:58;17.02;;;8.05;;
74259;SDS011;62630;55.874;37.516;2022-09-12T10:36:25;15.80;;;8.77;;
74259;SDS011;62630;55.874;37.516;2022-09-12T10:39:00;15.07;;;7.68;;
74259;SDS011;62630;55.874;37.516;2022-09-12T10:41:33;16.10;;;7.63;;
74259;SDS011;62630;55.874;37.516;2022-09-12T10:44:07;12.52;;;7.63;;
74259;SDS011;62630;55.874;37.516;2022-09-12T10:46:41;15.63;;;8.15;;
74259;SDS011;62630;55.874;37.516;2022-09-12T10:49:11;12.82;;;7.22;;
74259;SDS011;62630;55.874;37.516;2022-09-12T10:51:38;16.08;;;7.57;;
74259;SDS011;62630;55.874;37.516;2022-09-12T10:54:06;11.13;;;6.82;;
74259;SDS011;62630;55.874;37.516;2022-09-12T10:56:46;19.55;;;7.65;;
74259;SDS011;62630;55.874;37.516;2022-09-12T11:24:29;15.10;;;7.70;;
74259;SDS011;62630;55.874;37.516;2022-09-12T11:27:19;12.55;;;7.32;;
74259;SDS011;62630;55.874;37.516;2022-09-12T11:30:15;13.43;;;7.57;;
74259;SDS011;62630;55.874;37.516;2022-09-12T11:35:30;16.15;;;6.90;;
74259;SDS011;62630;55.874;37.516;2022-09-12T11:41:03;17.10;;;7.07;;
74259;SDS011;62630;55.874;37.516;2022-09-12T11:43:34;14.38;;;7.70;;
74259;SDS011;62630;55.874;37.516;2022-09-12T11:46:11;12.63;;;7.28;;
74259;SDS011;62630;55.874;37.516;2022-09-12T11:49:09;14.73;;;7.38;;
74259;SDS011;62630;55.874;37.516;2022-09-12T11:59:56;15.40;;;6.30;;
74259;SDS011;62630;55.874;37.516;2022-09-12T12:03:03;12.77;;;7.22;;
74259;SDS011;62630;55.874;37.516;2022-09-12T12:08:23;14.63;;;7.05;;
74259;SDS011;62630;55.874;37.516;2022-09-12T12:10:55;12.70;;;7.35;;
74259;SDS011;62630;55.874;37.516;2022-09-12T12:16:05;14.57;;;7.22;;
74259;SDS011;62630;55.874;37.516;2022-09-12T12:18:56;15.95;;;7.10;;
74259;SDS011;62630;55.874;37.516;2022-09-12T12:45:43;13.00;;;7.10;;
74259;SDS011;62630;55.874;37.516;2022-09-12T12:47:51;12.48;;;6.68;;
74259;SDS011;62630;55.874;37.516;2022-09-12T12:50:23;13.40;;;6.50;;
74259;SDS011;62630;55.874;37.516;2022-09-12T12:52:55;15.68;;;7.00;;
74259;SDS011;62630;55.874;37.516;2022-09-12T13:03:30;14.48;;;7.22;;
74259;SDS011;62630;55.874;37.516;2022-09-12T13:06:02;13.07;;;6.43;;
74259;SDS011;62630;55.874;37.516;2022-09-12T13:08:42;14.10;;;5.90;;
74259;SDS011;62630;55.874;37.516;2022-09-12T13:11:27;8.38;;;5.57;;
74259;SDS011;62630;55.874;37.516;2022-09-12T13:14:03;11.27;;;6.65;;
74259;SDS011;62630;55.874;37.516;2022-09-12T13:16:52;13.65;;;5.60;;
74259;SDS011;62630;55.874;37.516;2022-09-12T13:19:38;10.15;;;5.10;;
74259;SDS011;62630;55.874;37.516;2022-09-12T13:22:06;8.73;;;4.70;;
74259;SDS011;62630;55.874;37.516;2022-09-12T13:24:41;11.27;;;5.28;;
74259;SDS011;62630;55.874;37.516;2022-09-12T13:27:19;9.20;;;5.10;;
74259;SDS011;62630;55.874;37.516;2022-09-12T13:29:47;10.50;;;4.85;;
74259;SDS011;62630;55.874;37.516;2022-09-12T13:32:12;9.07;;;4.60;;
74259;SDS011;62630;55.874;37.516;2022-09-12T13:34:47;11.07;;;4.63;;
74259;SDS011;62630;55.874;37.516;2022-09-12T13:40:27;9.82;;;4.65;;
74259;SDS011;62630;55.874;37.516;2022-09-12T13:43:13;6.00;;;4.43;;
74259;SDS011;62630;55.874;37.516;2022-09-12T13:45:42;8.45;;;4.55;;
74259;SDS011;62630;55.874;37.516;2022-09-12T13:48:18;8.85;;;4.35;;
74259;SDS011;62630;55.874;37.516;2022-09-12T13:50:49;9.27;;;4.43;;
74259;SDS011;62630;55.874;37.516;2022-09-12T13:53:18;9.77;;;4.28;;
74259;SDS011;62630;55.874;37.516;2022-09-12T13:55:51;6.40;;;4.20;;
74259;SDS011;62630;55.874;37.516;2022-09-12T14:00:46;6.18;;;3.85;;
74259;SDS011;62630;55.874;37.516;2022-09-12T14:03:26;6.03;;;3.35;;
74259;SDS011;62630;55.874;37.516;2022-09-12T14:06:11;9.27;;;4.40;;
74259;SDS011;62630;55.874;37.516;2022-09-12T14:08:40;8.57;;;3.85;;
74259;SDS011;62630;55.874;37.516;2022-09-12T14:11:10;5.32;;;3.65;;
74259;SDS011;62630;55.874;37.516;2022-09-12T14:13:43;7.05;;;4.10;;
74259;SDS011;62630;55.874;37.516;2022-09-12T14:16:10;5.45;;;3.63;;
74259;SDS011;62630;55.874;37.516;2022-09-12T14:18:36;7.43;;;3.60;;
74259;SDS011;62630;55.874;37.516;2022-09-12T14:21:10;6.43;;;4.03;;
74259;SDS011;62630;55.874;37.516;2022-09-12T14:23:44;5.90;;;3.90;;
74259;SDS011;62630;55.874;37.516;2022-09-12T14:26:13;11.05;;;4.22;;
74259;SDS011;62630;55.874;37.516;2022-09-12T14:28:42;5.18;;;3.53;;
74259;SDS011;62630;55.874;37.516;2022-09-12T14:33:52;5.97;;;3.70;;
74259;SDS011;62630;55.874;37.516;2022-09-12T14:38:51;7.65;;;3.72;;
74259;SDS011;62630;55.874;37.516;2022-09-12T14:41:28;5.97;;;3.33;;
74259;SDS011;62630;55.874;37.516;2022-09-12T14:44:05;6.32;;;3.70;;
74259;SDS011;62630;55.874;37.516;2022-09-12T14:46:37;8.48;;;3.67;;
74259;SDS011;62630;55.874;37.516;2022-09-12T14:51:36;5.95;;;3.33;;
74259;SDS011;62630;55.874;37.516;2022-09-12T14:54:05;7.43;;;3.13;;
74259;SDS011;62630;55.874;37.516;2022-09-12T14:56:41;6.05;;;3.50;;
74259;SDS011;62630;55.874;37.516;2022-09-12T15:04:52;6.35;;;3.70;;
74259;SDS011;62630;55.874;37.516;2022-09-12T15:07:34;9.68;;;3.67;;
74259;SDS011;62630;55.874;37.516;2022-09-12T15:10:06;5.85;;;3.58;;
74259;SDS011;62630;55.874;37.516;2022-09-12T15:12:42;5.75;;;2.85;;
74259;SDS011;62630;55.874;37.516;2022-09-12T15:15:18;7.13;;;3.42;;
74259;SDS011;62630;55.874;37.516;2022-09-12T15:17:45;4.03;;;2.90;;
74259;SDS011;62630;55.874;37.516;2022-09-12T15:20:16;7.15;;;3.20;;
74259;SDS011;62630;55.874;37.516;2022-09-12T15:22:42;5.25;;;3.35;;
74259;SDS011;62630;55.874;37.516;2022-09-12T15:25:08;4.07;;;2.72;;
74259;SDS011;62630;55.874;37.516;2022-09-12T15:27:36;4.22;;;2.80;;
74259;SDS011;62630;55.874;37.516;2022-09-12T15:30:05;4.82;;;3.00;;
74259;SDS011;62630;55.874;37.516;2022-09-12T15:32:34;6.00;;;3.35;;
74259;SDS011;62630;55.874;37.516;2022-09-12T15:35:01;4.47;;;2.97;;
74259;SDS011;62630;55.874;37.516;2022-09-12T15:37:27;4.78;;;2.78;;
74259;SDS011;62630;55.874;37.516;2022-09-12T15:39:53;6.80;;;3.13;;
74259;SDS011;62630;55.874;37.516;2022-09-12T15:42:22;4.82;;;2.95;;
74259;SDS011;62630;55.874;37.516;2022-09-12T15:44:53;6.30;;;3.17;;
74259;SDS011;62630;55.874;37.516;2022-09-12T15:47:19;6.20;;;3.15;;
74259;SDS011;62630;55.874;37.516;2022-09-12T15:49:48;6.38;;;3.00;;
74259;SDS011;62630;55.874;37.516;2022-09-12T15:52:14;5.53;;;3.67;;
74259;SDS011;62630;55.874;37.516;2022-09-12T15:54:46;3.78;;;2.80;;
74259;SDS011;62630;55.874;37.516;2022-09-12T15:57:12;8.75;;;3.05;;
74259;SDS011;62630;55.874;37.516;2022-09-12T15:59:41;7.85;;;2.90;;
74259;SDS011;62630;55.874;37.516;2022-09-12T16:02:07;5.20;;;3.40;;
74259;SDS011;62630;55.874;37.516;2022-09-12T16:06:59;8.65;;;2.92;;
74259;SDS011;62630;55.874;37.516;2022-09-12T16:09:28;6.50;;;3.05;;
74259;SDS011;62630;55.874;37.516;2022-09-12T16:11:53;6.32;;;2.58;;
74259;SDS011;62630;55.874;37.516;2022-09-12T16:14:19;5.57;;;2.95;;
74259;SDS011;62630;55.874;37.516;2022-09-12T16:16:50;6.22;;;2.78;;
74259;SDS011;62630;55.874;37.516;2022-09-12T16:19:17;10.73;;;3.33;;
74259;SDS011;62630;55.874;37.516;2022-09-12T16:22:03;7.45;;;2.80;;
74259;SDS011;62630;55.874;37.516;2022-09-12T16:24:34;5.85;;;2.65;;
74259;SDS011;62630;55.874;37.516;2022-09-12T16:27:04;5.63;;;2.58;;
74259;SDS011;62630;55.874;37.516;2022-09-12T16:29:30;5.40;;;3.15;;
74259;SDS011;62630;55.874;37.516;2022-09-12T16:31:55;4.57;;;2.65;;
74259;SDS011;62630;55.874;37.516;2022-09-12T16:34:21;6.90;;;3.13;;
74259;SDS011;62630;55.874;37.516;2022-09-12T16:36:47;7.28;;;2.95;;
74259;SDS011;62630;55.874;37.516;2022-09-12T16:39:13;6.32;;;2.63;;
74259;SDS011;62630;55.874;37.516;2022-09-12T16:41:38;4.00;;;2.80;;
74259;SDS011;62630;55.874;37.516;2022-09-12T16:44:12;8.55;;;3.20;;
74259;SDS011;62630;55.874;37.516;2022-09-12T16:46:41;5.70;;;2.83;;
74259;SDS011;62630;55.874;37.516;2022-09-12T16:49:06;5.97;;;2.92;;
74259;SDS011;62630;55.874;37.516;2022-09-12T16:51:34;5.63;;;2.85;;
74259;SDS011;62630;55.874;37.516;2022-09-12T16:54:02;6.30;;;3.22;;
74259;SDS011;62630;55.874;37.516;2022-09-12T16:56:31;6.53;;;3.42;;
74259;SDS011;62630;55.874;37.516;2022-09-12T16:58:57;5.90;;;3.13;;
74259;SDS011;62630;55.874;37.516;2022-09-12T17:01:25;8.25;;;3.20;;
74259;SDS011;62630;55.874;37.516;2022-09-12T17:03:54;6.03;;;3.10;;
74259;SDS011;62630;55.874;37.516;2022-09-12T17:06:22;5.05;;;3.05;;
74259;SDS011;62630;55.874;37.516;2022-09-12T17:08:58;7.95;;;2.92;;
74259;SDS011;62630;55.874;37.516;2022-09-12T17:11:29;5.78;;;3.13;;
74259;SDS011;62630;55.874;37.516;2022-09-12T17:14:03;5.20;;;2.75;;
74259;SDS011;62630;55.874;37.516;2022-09-12T17:16:48;5.28;;;3.35;;
74259;SDS011;62630;55.874;37.516;2022-09-12T17:19:19;6.00;;;3.22;;
74259;SDS011;62630;55.874;37.516;2022-09-12T17:24:21;4.80;;;2.40;;
74259;SDS011;62630;55.874;37.516;2022-09-12T17:26:50;6.97;;;3.10;;
74259;SDS011;62630;55.874;37.516;2022-09-12T17:29:21;5.55;;;3.00;;
74259;SDS011;62630;55.874;37.516;2022-09-12T17:31:59;6.80;;;2.72;;
74259;SDS011;62630;55.874;37.516;2022-09-12T17:34:24;5.05;;;2.63;;
74259;SDS011;62630;55.874;37.516;2022-09-12T17:36:53;4.82;;;2.88;;
74259;SDS011;62630;55.874;37.516;2022-09-12T17:39:21;5.78;;;3.05;;
74259;SDS011;62630;55.874;37.516;2022-09-12T17:41:47;9.88;;;3.22;;
74259;SDS011;62630;55.874;37.516;2022-09-12T17:44:15;10.15;;;3.13;;
74259;SDS011;62630;55.874;37.516;2022-09-12T17:46:44;6.25;;;3.08;;
74259;SDS011;62630;55.874;37.516;2022-09-12T17:49:13;6.35;;;3.35;;
74259;SDS011;62630;55.874;37.516;2022-09-12T17:51:41;4.85;;;3.40;;
74259;SDS011;62630;55.874;37.516;2022-09-12T17:54:26;13.98;;;3.40;;
74259;SDS011;62630;55.874;37.516;2022-09-12T17:56:52;3.58;;;2.63;;
74259;SDS011;62630;55.874;37.516;2022-09-12T17:59:20;10.48;;;3.55;;
74259;SDS011;62630;55.874;37.516;2022-09-12T18:01:48;5.03;;;3.40;;
74259;SDS011;62630;55.874;37.516;2022-09-12T18:04:32;4.45;;;3.15;;
74259;SDS011;62630;55.874;37.516;2022-09-12T18:06:58;6.07;;;3.13;;